Time;durP1;ratioP1;P1;durP2;ratioP2;P2;SDS_P1;SDS_P2;PMS_P1;PMS_P2;Temp;Humidity;BMP_temperature;BMP_pressure;BME280_temperature;BME280_humidity;BME280_pressure;Samples;Min_cycle;Max_cycle;Signal;HPM_P1;HPM_P2
2023/03/04 00:00:32;;;;;;;6.32;2.03;;;;;;;-0.42;78.91;97788.41;5080624;28;20102;-35
2023/03/04 00:02:58;;;;;;;6.22;2.97;;;;;;;-0.44;79.51;97790.16;5064987;28;20075;-37
2023/03/04 00:05:23;;;;;;;8.32;2.88;;;;;;;-0.44;79.79;97786.78;5066719;28;20377;-35
2023/03/04 00:07:49;;;;;;;7.05;2.92;;;;;;;-0.48;79.76;97783.44;5064464;28;20032;-35
2023/03/04 00:10:16;;;;;;;4.78;1.65;;;;;;;-0.50;80.24;97784.34;5068001;28;20535;-35
2023/03/04 00:12:42;;;;;;;6.05;2.88;;;;;;;-0.52;80.48;97778.41;5051258;28;20097;-36
2023/03/04 00:15:08;;;;;;;6.20;1.98;;;;;;;-0.53;80.74;97769.94;5063700;28;20040;-35
2023/03/04 00:17:34;;;;;;;6.70;2.45;;;;;;;-0.49;80.58;97771.56;5066824;28;20111;-34
2023/03/04 00:20:00;;;;;;;6.03;2.30;;;;;;;-0.49;80.57;97766.47;5067259;28;20051;-36
2023/03/04 00:22:25;;;;;;;6.05;2.25;;;;;;;-0.47;81.15;97767.25;5066063;28;20032;-35
2023/03/04 00:24:51;;;;;;;6.03;2.50;;;;;;;-0.46;80.96;97758.72;5065307;28;20043;-35
2023/03/04 00:27:17;;;;;;;6.35;2.78;;;;;;;-0.67;81.27;97730.25;5067385;28;20405;-35
2023/03/04 00:29:43;;;;;;;4.35;1.90;;;;;;;-0.52;81.31;97758.84;5083353;28;20578;-34
2023/03/04 00:32:09;;;;;;;5.82;2.20;;;;;;;-0.57;81.85;97754.72;5066879;28;20492;-35
2023/03/04 00:34:35;;;;;;;9.48;2.75;;;;;;;-0.51;81.93;97750.31;5066291;28;20126;-36
2023/03/04 00:37:02;;;;;;;7.55;2.65;;;;;;;-0.44;82.14;97764.66;5063488;28;20072;-36
2023/03/04 00:39:28;;;;;;;5.78;2.13;;;;;;;-0.36;81.83;97767.00;5100021;28;20048;-36
2023/03/04 00:41:54;;;;;;;8.15;2.47;;;;;;;-0.21;81.25;97760.75;5068187;28;20123;-36
2023/03/04 00:44:20;;;;;;;8.38;3.10;;;;;;;-0.17;80.75;97757.25;5066458;28;20284;-35
2023/03/04 00:46:49;;;;;;;4.72;1.73;;;;;;;-0.17;80.67;97760.66;5097695;28;20126;-36
2023/03/04 00:49:15;;;;;;;6.85;2.65;;;;;;;-0.22;80.62;97753.97;5046354;28;20095;-35
2023/03/04 00:51:41;;;;;;;8.45;2.28;;;;;;;-0.09;80.47;97750.25;5066492;28;20044;-36
2023/03/04 00:54:07;;;;;;;8.40;2.58;;;;;;;-0.04;80.14;97756.09;5067717;28;20035;-35
2023/03/04 00:56:33;;;;;;;7.30;4.13;;;;;;;0.09;79.71;97749.84;5046412;28;20527;-35
2023/03/04 00:58:59;;;;;;;6.53;2.70;;;;;;;-0.01;79.82;97756.03;5046739;28;20049;-36
2023/03/04 01:01:25;;;;;;;11.07;3.15;;;;;;;-0.24;79.70;97720.81;5046767;28;20044;-37
2023/03/04 01:03:51;;;;;;;8.32;2.97;;;;;;;-0.08;79.93;97755.31;5080886;28;20044;-36
2023/03/04 01:06:17;;;;;;;9.38;2.70;;;;;;;-0.42;79.94;97696.53;5070058;28;20139;-36
2023/03/04 01:08:43;;;;;;;8.02;3.60;;;;;;;-0.15;80.09;97743.56;5070198;28;20036;-34
2023/03/04 01:11:09;;;;;;;6.63;3.22;;;;;;;-0.13;80.07;97746.94;5070476;28;20102;-34
2023/03/04 01:13:35;;;;;;;10.98;3.95;;;;;;;-0.05;79.94;97742.47;5070716;28;20033;-35
2023/03/04 01:16:03;;;;;;;7.18;3.63;;;;;;;0.02;79.52;97735.50;5069850;28;20514;-35
2023/03/04 01:18:31;;;;;;;9.55;3.85;;;;;;;0.00;79.60;97732.19;5088250;28;20059;-36
2023/03/04 01:20:58;;;;;;;9.50;3.88;;;;;;;-0.06;79.26;97725.50;5073892;28;20040;-34
2023/03/04 01:23:24;;;;;;;10.15;4.45;;;;;;;-0.13;79.62;97728.22;5052340;28;20039;-35
2023/03/04 01:25:50;;;;;;;10.35;4.28;;;;;;;-0.13;80.08;97746.09;5062820;28;20048;-35
2023/03/04 01:28:18;;;;;;;8.10;3.85;;;;;;;-0.18;79.98;97737.69;5052176;28;20036;-35
2023/03/04 01:30:43;;;;;;;7.63;2.42;;;;;;;-0.24;80.65;97740.38;5094011;28;20047;-36
2023/03/04 01:33:09;;;;;;;8.05;3.53;;;;;;;-0.47;80.81;97713.66;5091797;28;20122;-36
2023/03/04 01:35:35;;;;;;;8.13;3.10;;;;;;;-0.23;80.83;97736.97;5072056;28;20044;-35
2023/03/04 01:38:01;;;;;;;7.18;3.42;;;;;;;-0.49;80.82;97709.47;5069091;28;20479;-36
2023/03/04 01:40:27;;;;;;;8.63;3.33;;;;;;;-0.36;81.39;97725.34;5052966;28;20476;-35
2023/03/04 01:42:53;;;;;;;6.32;3.08;;;;;;;-0.54;81.28;97680.66;5084186;28;20732;-36
2023/03/04 01:45:20;;;;;;;6.53;2.97;;;;;;;-0.22;80.72;97715.66;5070074;28;20068;-34
2023/03/04 01:47:47;;;;;;;5.50;2.78;;;;;;;-0.20;80.44;97719.00;5070875;28;20032;-35
2023/03/04 01:50:21;;;;;;;5.10;2.90;;;;;;;-0.23;80.78;97714.81;5070217;28;20412;-34
2023/03/04 01:52:47;;;;;;;11.10;3.63;;;;;;;-0.24;81.01;97717.41;5068157;28;20040;-35
2023/03/04 01:55:18;;;;;;;8.73;4.15;;;;;;;-0.21;80.79;97704.59;5052341;28;20048;-35
2023/03/04 01:57:46;;;;;;;8.10;3.30;;;;;;;-0.35;81.14;97701.50;5086201;28;20546;-34
2023/03/04 02:00:25;;;;;;;10.35;4.30;;;;;;;-0.39;81.66;97700.72;5069553;28;20415;-34
2023/03/04 02:03:00;;;;;;;7.82;3.30;;;;;;;-0.65;81.84;97670.69;5052736;28;20044;-37
2023/03/04 02:05:26;;;;;;;9.07;4.10;;;;;;;-0.51;81.94;97690.78;5068606;28;20055;-35
2023/03/04 02:07:54;;;;;;;10.70;3.85;;;;;;;-0.49;82.12;97686.50;5051828;28;20105;-35
2023/03/04 02:10:20;;;;;;;10.77;3.63;;;;;;;-0.63;82.44;97650.25;5070189;28;20092;-35
2023/03/04 02:12:46;;;;;;;7.18;2.97;;;;;;;-0.45;82.61;97672.78;5068731;28;20459;-36
2023/03/04 02:15:12;;;;;;;10.18;4.30;;;;;;;-0.56;82.73;97672.19;5048983;28;20033;-36
2023/03/04 02:17:38;;;;;;;7.95;3.33;;;;;;;-0.91;82.65;97612.59;5071733;28;20040;-35
2023/03/04 02:20:11;;;;;;;5.75;2.75;;;;;;;-0.58;83.00;97671.41;5068747;28;20044;-35
2023/03/04 02:22:41;;;;;;;7.60;3.60;;;;;;;-0.64;82.93;97674.94;5070744;28;20040;-35
2023/03/04 02:25:10;;;;;;;5.90;2.55;;;;;;;-0.67;83.47;97667.31;5067337;28;20045;-36
2023/03/04 02:27:37;;;;;;;9.45;3.95;;;;;;;-0.68;83.88;97664.84;5035677;28;20044;-35
2023/03/04 02:30:04;;;;;;;10.25;4.07;;;;;;;-0.74;83.75;97657.31;5067136;28;20512;-36
2023/03/04 02:32:30;;;;;;;11.50;4.00;;;;;;;-0.74;83.88;97652.19;5051346;28;20048;-35
2023/03/04 02:34:56;;;;;;;11.73;5.03;;;;;;;-0.62;83.73;97655.31;5070208;28;20063;-35
2023/03/04 02:37:22;;;;;;;10.77;4.68;;;;;;;-0.76;84.12;97623.31;5067649;28;20178;-35
2023/03/04 02:39:51;;;;;;;13.77;4.82;;;;;;;-0.53;84.04;97639.81;5068416;28;20080;-36
2023/03/04 02:42:17;;;;;;;10.75;4.20;;;;;;;-0.50;84.12;97644.81;5052359;28;20432;-36
2023/03/04 02:44:47;;;;;;;7.90;3.08;;;;;;;-0.52;83.84;97638.06;5069012;28;20050;-36
2023/03/04 02:47:18;;;;;;;8.70;4.18;;;;;;;-0.60;84.11;97633.16;5068909;28;20424;-34
2023/03/04 02:49:46;;;;;;;8.68;3.45;;;;;;;-0.63;84.22;97624.75;5050798;28;20041;-36
2023/03/04 02:52:19;;;;;;;6.38;3.45;;;;;;;-0.64;83.96;97629.00;5084324;28;20089;-35
2023/03/04 02:54:45;;;;;;;7.97;3.05;;;;;;;-0.73;83.73;97630.94;5051404;28;20443;-35
2023/03/04 02:57:13;;;;;;;8.00;3.53;;;;;;;-0.75;83.71;97622.47;5065720;28;20173;-35
2023/03/04 02:59:42;;;;;;;8.18;3.75;;;;;;;-1.07;84.13;97603.59;5051529;28;20070;-36
2023/03/04 03:02:12;;;;;;;3.85;2.35;;;;;;;-1.06;84.66;97628.25;5069208;28;20040;-36
2023/03/04 03:04:38;;;;;;;9.07;3.13;;;;;;;-1.17;85.41;97614.88;5068964;28;20076;-36
2023/03/04 03:07:08;;;;;;;10.73;4.13;;;;;;;-1.17;85.81;97608.94;5066422;28;20040;-35
2023/03/04 03:09:34;;;;;;;10.77;4.07;;;;;;;-1.16;85.97;97613.16;5050822;28;20040;-35
2023/03/04 03:12:00;;;;;;;10.27;4.00;;;;;;;-1.11;86.30;97608.81;5066900;28;20130;-35
2023/03/04 03:14:28;;;;;;;6.72;3.33;;;;;;;-0.95;86.00;97603.34;5068307;28;20059;-36
2023/03/04 03:16:55;;;;;;;6.82;3.17;;;;;;;-0.97;85.77;97612.72;5050938;28;20032;-35
2023/03/04 03:19:20;;;;;;;11.10;4.32;;;;;;;-0.96;86.15;97611.88;5068038;28;20478;-35
2023/03/04 03:21:46;;;;;;;7.30;3.80;;;;;;;-0.94;85.75;97607.56;5067492;28;20044;-35
2023/03/04 03:24:12;;;;;;;3.58;2.22;;;;;;;-0.96;85.82;97614.41;5068324;28;20044;-35
2023/03/04 03:26:38;;;;;;;4.35;2.08;;;;;;;-1.13;86.11;97615.63;5032353;28;20052;-34
2023/03/04 03:29:04;;;;;;;6.78;3.35;;;;;;;-1.20;86.57;97606.47;5067636;28;20036;-35
2023/03/04 03:31:30;;;;;;;7.65;3.05;;;;;;;-1.39;86.86;97568.59;5082712;28;20055;-35
2023/03/04 03:33:56;;;;;;;6.53;3.42;;;;;;;-1.19;86.78;97590.28;5051375;28;20036;-34
2023/03/04 03:36:22;;;;;;;4.40;1.88;;;;;;;-1.33;86.63;97596.50;5066954;28;20143;-35
2023/03/04 03:38:48;;;;;;;7.15;2.30;;;;;;;-1.66;86.96;97571.72;5066818;28;20510;-36
2023/03/04 03:41:14;;;;;;;2.15;1.27;;;;;;;-1.56;87.69;97600.38;5056349;28;20043;-35
2023/03/04 03:43:40;;;;;;;5.50;1.67;;;;;;;-1.65;88.51;97596.31;5067942;28;20354;-35
2023/03/04 03:46:06;;;;;;;3.75;1.83;;;;;;;-1.68;89.19;97603.19;5068995;28;20068;-35
2023/03/04 03:48:32;;;;;;;6.47;2.50;;;;;;;-1.73;89.80;97586.25;5068522;28;20123;-35
2023/03/04 03:50:58;;;;;;;5.07;2.63;;;;;;;-1.68;90.51;97578.56;5068384;28;20419;-35
2023/03/04 03:53:23;;;;;;;7.88;3.60;;;;;;;-1.63;90.72;97578.47;5067557;28;20040;-36
2023/03/04 03:55:49;;;;;;;6.65;3.17;;;;;;;-1.64;91.09;97564.03;5065628;28;20048;-36
2023/03/04 03:58:16;;;;;;;3.83;1.60;;;;;;;-1.75;90.75;97539.63;5067680;28;20143;-35
2023/03/04 04:00:41;;;;;;;6.85;2.63;;;;;;;-1.56;91.00;97557.06;5068574;28;20126;-36
2023/03/04 04:03:10;;;;;;;5.00;2.28;;;;;;;-1.49;90.48;97566.28;5066029;28;20175;-36
2023/03/04 04:05:36;;;;;;;4.13;2.30;;;;;;;-1.55;90.60;97566.41;5067471;28;20042;-36
2023/03/04 04:08:02;;;;;;;5.43;2.55;;;;;;;-1.64;90.62;97547.06;5068759;28;20499;-35
2023/03/04 04:10:28;;;;;;;12.60;4.63;;;;;;;-1.65;91.30;97545.38;5050005;28;20056;-36
2023/03/04 04:12:54;;;;;;;7.07;2.45;;;;;;;-1.94;91.09;97497.59;5068365;28;20131;-36
2023/03/04 04:15:20;;;;;;;5.47;1.88;;;;;;;-1.75;91.39;97543.88;5064689;28;20040;-35
2023/03/04 04:17:46;;;;;;;2.83;1.85;;;;;;;-1.79;92.16;97547.38;5066536;28;20496;-35
2023/03/04 04:20:12;;;;;;;3.97;1.50;;;;;;;-1.74;92.38;97536.22;5066882;28;20049;-36
2023/03/04 04:22:38;;;;;;;2.45;1.15;;;;;;;-1.72;92.47;97534.47;5066627;28;20032;-35
2023/03/04 04:25:04;;;;;;;6.72;2.80;;;;;;;-1.76;92.40;97532.84;5066702;28;20041;-35
2023/03/04 04:27:30;;;;;;;6.03;2.75;;;;;;;-1.76;92.73;97520.13;5050121;28;20048;-34
2023/03/04 04:29:56;;;;;;;6.53;3.13;;;;;;;-1.72;93.04;97516.63;5065734;28;20040;-37
2023/03/04 04:32:22;;;;;;;4.78;1.73;;;;;;;-1.72;93.23;97524.28;5066727;28;20048;-35
2023/03/04 04:34:47;;;;;;;4.20;2.22;;;;;;;-1.70;93.63;97516.63;5049626;28;20056;-36
2023/03/04 04:37:13;;;;;;;5.05;2.83;;;;;;;-1.76;93.79;97512.47;5067973;28;20050;-37
2023/03/04 04:39:39;;;;;;;3.85;2.47;;;;;;;-2.02;94.04;97461.25;5065804;28;20122;-35
2023/03/04 04:42:05;;;;;;;7.25;2.65;;;;;;;-1.60;94.08;97512.16;5067793;28;20055;-35
2023/03/04 04:44:31;;;;;;;9.48;2.50;;;;;;;-1.54;93.89;97517.97;5066022;28;20068;-36
2023/03/04 04:46:57;;;;;;;5.90;3.17;;;;;;;-1.49;94.14;97517.88;5066880;28;20047;-35
2023/03/04 04:49:23;;;;;;;9.55;3.67;;;;;;;-1.45;93.77;97512.66;5066013;28;20106;-36
2023/03/04 04:51:48;;;;;;;13.98;4.82;;;;;;;-1.44;93.66;97509.25;5049738;28;20040;-35
2023/03/04 04:54:14;;;;;;;10.40;4.82;;;;;;;-1.43;93.50;97515.19;5065961;28;20048;-34
2023/03/04 04:56:40;;;;;;;11.15;4.90;;;;;;;-1.35;93.52;97509.06;5067768;28;20041;-35
2023/03/04 04:59:07;;;;;;;10.35;4.53;;;;;;;-1.27;92.87;97519.09;5064913;28;20037;-35
2023/03/04 05:01:33;;;;;;;9.95;3.92;;;;;;;-1.45;93.02;97486.34;5067284;28;20051;-35
2023/03/04 05:03:59;;;;;;;5.20;2.60;;;;;;;-1.23;93.01;97515.59;5068106;28;20029;-38
2023/03/04 05:06:26;;;;;;;6.90;3.58;;;;;;;-1.25;92.81;97519.03;5066741;28;20050;-36
2023/03/04 05:08:52;;;;;;;9.45;3.47;;;;;;;-1.24;92.47;97506.25;5064566;28;20024;-36
2023/03/04 05:11:18;;;;;;;7.85;4.78;;;;;;;-1.05;92.24;97507.53;5067442;28;20110;-36
2023/03/04 05:13:45;;;;;;;9.73;5.03;;;;;;;-0.90;91.42;97506.34;5045041;28;20036;-37
2023/03/04 05:16:12;;;;;;;10.32;4.30;;;;;;;-0.74;90.83;97507.66;5047908;28;20045;-36
2023/03/04 05:18:38;;;;;;;12.93;5.47;;;;;;;-0.62;90.39;97512.44;5075099;28;20055;-35
2023/03/04 05:21:04;;;;;;;12.07;5.00;;;;;;;-0.49;89.93;97506.16;5049315;28;20519;-35
2023/03/04 05:23:35;;;;;;;14.02;5.95;;;;;;;-0.41;89.14;97505.94;5065498;28;20040;-35
2023/03/04 05:26:02;;;;;;;14.40;6.03;;;;;;;-0.43;88.72;97474.53;5080818;28;20078;-37
2023/03/04 05:28:29;;;;;;;13.35;5.13;;;;;;;-0.32;88.08;97472.53;5066285;28;20507;-36
2023/03/04 05:30:54;;;;;;;9.38;4.38;;;;;;;-0.06;86.76;97499.94;5067225;28;20419;-35
2023/03/04 05:33:20;;;;;;;10.38;5.45;;;;;;;-0.12;86.18;97465.19;5064205;28;20040;-35
2023/03/04 05:35:47;;;;;;;11.57;4.93;;;;;;;0.21;85.60;97493.22;5066458;28;20078;-35
2023/03/04 05:38:16;;;;;;;9.65;4.75;;;;;;;-0.04;84.75;97437.69;5066959;28;20036;-35
2023/03/04 05:40:42;;;;;;;9.75;4.30;;;;;;;0.52;84.10;97494.00;5065178;28;20539;-35
2023/03/04 05:43:09;;;;;;;12.43;4.55;;;;;;;0.56;83.75;97485.38;5067328;28;20040;-36
2023/03/04 05:45:35;;;;;;;7.60;4.10;;;;;;;0.56;82.56;97498.13;5066265;28;20040;-36
2023/03/04 05:48:01;;;;;;;5.85;3.15;;;;;;;0.54;81.71;97489.66;5064659;28;20056;-35
2023/03/04 05:50:28;;;;;;;9.77;3.72;;;;;;;0.38;81.85;97481.63;5034951;28;20503;-36
2023/03/04 05:52:54;;;;;;;4.90;2.53;;;;;;;0.45;81.32;97481.44;5051453;28;20040;-36
2023/03/04 05:55:20;;;;;;;8.43;3.35;;;;;;;0.40;81.06;97486.69;5071301;28;20102;-35
2023/03/04 05:57:47;;;;;;;4.72;2.85;;;;;;;0.15;80.83;97468.69;5068430;28;21203;-36
2023/03/04 06:00:17;;;;;;;8.68;3.25;;;;;;;0.28;80.71;97484.47;5051044;28;20048;-36
2023/03/04 06:02:43;;;;;;;4.18;1.73;;;;;;;0.25;80.54;97482.03;5049557;28;20142;-36
2023/03/04 06:05:10;;;;;;;9.63;3.88;;;;;;;0.22;80.16;97477.00;5080306;28;20054;-36
2023/03/04 06:07:36;;;;;;;6.90;3.15;;;;;;;0.25;80.57;97480.31;5083785;28;20074;-36
2023/03/04 06:10:03;;;;;;;6.97;2.88;;;;;;;0.03;79.82;97447.75;5069327;28;20141;-35
2023/03/04 06:12:29;;;;;;;7.65;3.55;;;;;;;0.21;80.66;97471.03;5070312;28;20432;-35
2023/03/04 06:14:56;;;;;;;5.80;3.00;;;;;;;0.25;80.66;97472.66;5069571;28;20047;-36
2023/03/04 06:17:21;;;;;;;7.00;3.10;;;;;;;0.13;80.64;97474.69;5068839;28;20089;-35
2023/03/04 06:19:47;;;;;;;5.25;2.88;;;;;;;0.00;80.43;97446.13;5069075;28;20135;-44
2023/03/04 06:22:13;;;;;;;8.80;3.58;;;;;;;0.27;80.62;97473.41;5068914;28;20048;-35
2023/03/04 06:24:39;;;;;;;7.70;3.75;;;;;;;0.26;80.14;97447.94;5070276;28;20048;-36
2023/03/04 06:27:05;;;;;;;7.45;3.08;;;;;;;0.55;80.16;97470.06;5070713;28;20141;-36
2023/03/04 06:29:31;;;;;;;8.20;4.10;;;;;;;0.57;79.35;97458.91;5069758;28;20039;-36
2023/03/04 06:31:58;;;;;;;13.95;6.50;;;;;;;0.51;79.17;97430.16;5070504;28;20045;-36
2023/03/04 06:34:24;;;;;;;6.28;3.50;;;;;;;0.78;79.13;97453.16;5086084;28;20042;-36
2023/03/04 06:36:50;;;;;;;9.90;3.90;;;;;;;0.86;78.41;97442.66;5070402;28;20064;-36
2023/03/04 06:39:16;;;;;;;8.90;3.78;;;;;;;0.93;78.31;97446.72;5069521;28;20123;-35
2023/03/04 06:41:42;;;;;;;7.57;3.47;;;;;;;1.06;78.55;97447.13;5069882;28;20041;-36
2023/03/04 06:44:07;;;;;;;7.88;3.60;;;;;;;1.14;77.35;97430.66;5051443;28;20055;-36
2023/03/04 06:46:34;;;;;;;6.10;3.13;;;;;;;1.28;76.41;97432.75;5068938;28;20504;-36
2023/03/04 06:49:00;;;;;;;8.30;4.18;;;;;;;1.20;76.30;97430.44;5084784;28;20040;-36
2023/03/04 06:51:26;;;;;;;7.75;3.70;;;;;;;1.22;75.81;97402.25;5070161;28;20572;-36
2023/03/04 06:53:52;;;;;;;4.78;2.63;;;;;;;1.51;75.90;97425.16;5068856;28;20048;-36
2023/03/04 06:56:19;;;;;;;9.88;3.30;;;;;;;1.23;74.86;97399.66;5069823;28;20036;-36
2023/03/04 06:58:45;;;;;;;6.65;3.15;;;;;;;1.39;74.36;97414.47;5067780;28;20044;-36
2023/03/04 07:01:16;;;;;;;6.93;3.22;;;;;;;1.63;74.28;97411.06;5067868;28;20055;-35
2023/03/04 07:03:42;;;;;;;8.07;3.78;;;;;;;1.72;73.61;97409.91;5069780;28;20036;-36
2023/03/04 07:06:13;;;;;;;8.50;3.30;;;;;;;1.89;72.55;97412.69;5069683;28;20566;-36
2023/03/04 07:08:39;;;;;;;7.97;3.10;;;;;;;1.95;72.38;97400.50;5067462;28;20033;-37
2023/03/04 07:11:05;;;;;;;5.55;2.90;;;;;;;1.97;71.86;97392.78;5069465;28;20086;-36
2023/03/04 07:13:33;;;;;;;5.50;3.10;;;;;;;2.10;71.60;97389.69;5067808;28;20567;-36
2023/03/04 07:15:59;;;;;;;7.05;3.30;;;;;;;2.35;71.32;97388.78;5078496;28;20062;-35
2023/03/04 07:18:25;;;;;;;8.23;3.17;;;;;;;2.45;71.00;97390.09;5067271;28;20123;-36
2023/03/04 07:20:52;;;;;;;3.40;2.38;;;;;;;2.46;70.19;97350.75;5068272;28;20202;-37
2023/03/04 07:23:18;;;;;;;4.72;2.30;;;;;;;2.93;69.54;97379.63;5067893;28;20052;-38
2023/03/04 07:25:44;;;;;;;3.90;2.03;;;;;;;2.98;68.11;97373.38;5069318;28;20042;-36
2023/03/04 07:28:10;;;;;;;6.50;3.30;;;;;;;2.77;68.60;97374.28;5068818;28;20031;-35
2023/03/04 07:30:36;;;;;;;4.03;2.70;;;;;;;2.77;68.33;97369.16;5066463;28;20346;-34
2023/03/04 07:33:02;;;;;;;6.97;3.10;;;;;;;2.89;68.31;97357.53;5048518;28;20040;-34
2023/03/04 07:35:28;;;;;;;4.88;2.88;;;;;;;3.33;68.16;97360.81;5082550;28;20079;-35
2023/03/04 07:37:54;;;;;;;5.57;3.33;;;;;;;3.57;67.01;97358.91;5050536;28;20067;-35
2023/03/04 07:40:20;;;;;;;6.57;3.22;;;;;;;3.64;67.13;97344.91;5065841;28;20040;-34
2023/03/04 07:42:50;;;;;;;5.43;3.10;;;;;;;3.40;66.38;97329.66;5065545;28;20087;-34
2023/03/04 07:45:16;;;;;;;7.72;3.10;;;;;;;3.58;66.81;97328.03;5066784;28;20040;-37
2023/03/04 07:47:43;;;;;;;4.07;3.03;;;;;;;3.71;65.99;97348.88;5066614;28;20040;-38
2023/03/04 07:50:10;;;;;;;5.82;3.45;;;;;;;3.57;65.94;97357.19;5064654;28;20040;-35
2023/03/04 07:52:41;;;;;;;6.22;3.67;;;;;;;3.67;66.15;97343.03;5066286;28;20044;-35
2023/03/04 07:55:08;;;;;;;7.03;3.03;;;;;;;3.76;65.57;97345.22;5058569;28;20587;-35
2023/03/04 07:57:34;;;;;;;4.53;2.85;;;;;;;3.59;65.31;97342.53;5065943;28;20518;-36
2023/03/04 08:00:00;;;;;;;8.70;3.22;;;;;;;3.19;65.34;97345.16;5066252;28;20090;-36
2023/03/04 08:02:26;;;;;;;5.32;3.30;;;;;;;2.85;66.20;97345.72;5065704;28;20068;-35
2023/03/04 08:04:52;;;;;;;6.63;2.88;;;;;;;2.74;66.21;97340.19;5066366;28;20119;-35
2023/03/04 08:07:18;;;;;;;5.25;3.30;;;;;;;2.55;66.87;97350.38;5063327;28;20036;-36
2023/03/04 08:09:44;;;;;;;7.38;3.50;;;;;;;2.54;67.18;97331.59;5064380;28;20415;-36
2023/03/04 08:12:10;;;;;;;6.47;3.20;;;;;;;2.61;67.03;97327.06;5068387;28;20071;-36
2023/03/04 08:14:36;;;;;;;5.65;2.90;;;;;;;2.59;67.11;97330.56;5051808;28;20041;-37
2023/03/04 08:17:02;;;;;;;4.28;2.50;;;;;;;2.78;67.32;97323.78;5049424;28;20477;-35
2023/03/04 08:19:28;;;;;;;6.22;3.30;;;;;;;2.77;66.88;97324.69;5066439;28;20062;-34
2023/03/04 08:21:54;;;;;;;7.13;3.20;;;;;;;2.86;66.74;97326.88;5066880;28;20071;-35
2023/03/04 08:24:20;;;;;;;6.32;3.25;;;;;;;2.41;67.02;97265.44;5050221;28;20440;-36
2023/03/04 08:26:47;;;;;;;4.65;3.25;;;;;;;2.90;67.19;97315.59;5067069;28;20434;-35
2023/03/04 08:29:17;;;;;;;6.13;3.78;;;;;;;2.85;66.81;97315.78;5064190;28;20083;-37
2023/03/04 08:31:45;;;;;;;;;;;;;;;3.01;66.74;97304.88;5065123;28;20051;-36
2023/03/04 08:34:13;;;;;;;5.63;3.90;;;;;;;2.85;66.30;97279.84;5067248;28;19992;-36
2023/03/04 08:36:42;;;;;;;9.80;3.47;;;;;;;2.93;66.52;97307.78;5066287;28;20040;-36
2023/03/04 08:39:10;;;;;;;8.82;3.03;;;;;;;2.76;66.49;97307.63;5063396;28;20036;-36
2023/03/04 08:41:36;;;;;;;7.25;3.05;;;;;;;2.68;66.75;97295.09;5078921;28;20098;-35
2023/03/04 08:44:02;;;;;;;4.55;1.98;;;;;;;2.81;66.66;97305.72;5047503;28;20032;-37
2023/03/04 08:46:29;;;;;;;6.57;2.85;;;;;;;2.54;66.54;97297.41;5065395;28;20075;-36
2023/03/04 08:48:54;;;;;;;4.70;2.55;;;;;;;2.47;66.51;97294.25;5066951;28;20035;-36
2023/03/04 08:51:21;;;;;;;4.22;2.67;;;;;;;2.59;66.62;97282.66;5067803;28;20041;-36
2023/03/04 08:53:46;;;;;;;7.55;3.33;;;;;;;2.64;66.41;97262.78;5065464;28;21409;-35
2023/03/04 08:56:13;;;;;;;5.63;2.83;;;;;;;2.68;65.95;97281.44;5066562;28;20076;-36
2023/03/04 08:58:39;;;;;;;4.95;2.38;;;;;;;2.65;66.20;97281.59;5049304;28;20109;-35
2023/03/04 09:01:11;;;;;;;5.82;2.92;;;;;;;2.57;66.58;97274.19;5067965;28;20036;-35
2023/03/04 09:03:37;;;;;;;7.28;2.47;;;;;;;2.61;66.86;97242.41;5064302;28;20052;-36
2023/03/04 09:06:04;;;;;;;6.50;3.22;;;;;;;2.61;66.90;97244.97;5067976;28;20618;-36
2023/03/04 09:08:30;;;;;;;4.90;3.20;;;;;;;2.90;67.00;97266.81;5066387;28;20467;-35
2023/03/04 09:10:56;;;;;;;8.10;3.40;;;;;;;3.27;66.66;97263.50;5064020;28;20056;-40
2023/03/04 09:13:24;;;;;;;4.43;3.03;;;;;;;3.41;65.89;97264.56;5064792;28;20036;-41
2023/03/04 09:15:51;;;;;;;7.03;3.10;;;;;;;3.69;65.74;97259.03;5077961;28;20131;-39
2023/03/04 09:18:19;;;;;;;7.43;3.40;;;;;;;4.15;64.98;97254.31;5068131;28;20040;-39
2023/03/04 09:20:45;;;;;;;5.35;3.10;;;;;;;4.39;64.16;97234.31;5052196;28;20132;-40
2023/03/04 09:23:12;;;;;;;5.80;2.72;;;;;;;4.91;63.40;97209.38;5062662;28;20044;-39
2023/03/04 09:25:38;;;;;;;5.78;2.53;;;;;;;5.53;61.38;97235.25;5068280;28;20044;-39
2023/03/04 09:28:05;;;;;;;3.88;2.28;;;;;;;5.25;61.05;97231.63;5070735;28;20047;-40
2023/03/04 09:30:31;;;;;;;4.28;2.13;;;;;;;4.50;61.42;97225.13;5064264;28;20361;-40
2023/03/04 09:32:57;;;;;;;5.30;3.05;;;;;;;4.21;62.17;97194.88;5049811;28;20044;-40
2023/03/04 09:35:23;;;;;;;4.85;2.53;;;;;;;4.34;61.74;97208.81;5070647;28;20046;-39
2023/03/04 09:37:51;;;;;;;5.32;2.50;;;;;;;3.97;61.47;97183.22;5066259;28;20044;-38
2023/03/04 09:40:20;;;;;;;4.35;2.40;;;;;;;3.75;62.09;97202.22;5068786;28;20547;-40
2023/03/04 09:42:49;;;;;;;5.07;2.95;;;;;;;3.46;62.66;97199.31;5066228;28;20533;-40
2023/03/04 09:45:21;;;;;;;5.55;2.60;;;;;;;3.31;63.06;97185.44;5069803;28;20052;-38
2023/03/04 09:47:49;;;;;;;7.85;3.63;;;;;;;3.25;63.82;97190.84;5064452;28;20041;-41
2023/03/04 09:50:15;;;;;;;5.85;2.70;;;;;;;3.14;63.83;97182.81;5065140;28;20037;-39
2023/03/04 09:53:08;;;;;;;5.03;2.63;;;;;;;3.26;64.13;97177.97;5062470;28;20047;-39
2023/03/04 09:55:37;;;;;;;4.78;2.22;;;;;;;3.32;63.74;97175.13;5089832;28;20045;-41
2023/03/04 09:58:13;;;;;;;4.70;2.38;;;;;;;3.40;63.33;97141.41;5069137;28;20055;-41
2023/03/04 10:00:45;;;;;;;2.50;1.70;;;;;;;3.93;61.94;97161.13;5049966;28;20045;-40
2023/03/04 10:03:32;;;;;;;5.22;1.73;;;;;;;4.00;61.15;97154.78;5056009;28;20048;-40
2023/03/04 10:06:05;;;;;;;2.03;1.38;;;;;;;3.99;60.05;97147.97;5068357;28;20040;-40
2023/03/04 10:08:59;;;;;;;2.42;1.63;;;;;;;3.86;60.47;97147.75;5065319;28;20520;-39
2023/03/04 10:11:33;;;;;;;3.45;1.63;;;;;;;3.79;60.30;97143.81;5069146;28;20546;-39
2023/03/04 10:14:20;;;;;;;2.78;1.50;;;;;;;3.55;60.56;97144.97;5068929;28;20048;-40
2023/03/04 10:16:57;;;;;;;3.22;1.70;;;;;;;3.23;60.60;97097.69;5052814;28;20052;-41
2023/03/04 10:19:48;;;;;;;4.18;1.45;;;;;;;3.70;60.21;97139.94;5070729;28;20051;-39
2023/03/04 10:22:43;;;;;;;2.85;1.40;;;;;;;3.84;59.99;97132.41;5067856;28;20470;-40
2023/03/04 10:25:29;;;;;;;4.40;1.88;;;;;;;3.85;60.11;97112.69;5058246;28;20052;-41
2023/03/04 10:27:58;;;;;;;4.30;1.77;;;;;;;4.00;59.39;97111.94;5083925;28;20082;-41
2023/03/04 10:30:55;;;;;;;2.40;1.80;;;;;;;3.99;60.10;97112.00;5050193;28;20132;-41
2023/03/04 10:33:25;;;;;;;1.60;1.30;;;;;;;3.91;59.84;97099.53;5055594;28;20377;-40
2023/03/04 10:36:12;;;;;;;4.32;1.85;;;;;;;3.73;60.14;97106.38;5060940;28;20539;-43
2023/03/04 10:38:40;;;;;;;2.90;1.60;;;;;;;3.71;59.83;97089.41;5088070;28;20517;-43
2023/03/04 10:41:35;;;;;;;4.03;2.00;;;;;;;3.74;60.06;97091.81;5069287;28;20068;-44
2023/03/04 10:44:10;;;;;;;3.55;2.10;;;;;;;3.73;60.11;97085.84;5041718;28;20040;-43
2023/03/04 10:46:40;;;;;;;4.03;1.77;;;;;;;3.45;60.33;97054.69;5070687;28;20040;-34
2023/03/04 10:49:06;;;;;;;4.82;1.90;;;;;;;3.58;60.74;97080.59;5050821;28;20145;-34
2023/03/04 10:51:41;;;;;;;1.70;1.27;;;;;;;3.59;61.25;97067.69;5099186;28;20162;-35
2023/03/04 10:54:25;;;;;;;3.22;1.77;;;;;;;3.54;61.63;97069.66;5065770;28;20040;-34
2023/03/04 10:57:00;;;;;;;2.50;1.58;;;;;;;3.59;61.61;97072.84;5052477;28;20057;-34
2023/03/04 10:59:43;;;;;;;3.30;1.50;;;;;;;3.47;61.90;97059.75;5067813;28;20174;-35
2023/03/04 11:02:27;;;;;;;3.92;1.90;;;;;;;3.30;61.98;97040.84;5041274;28;20139;-34
2023/03/04 11:05:08;;;;;;;3.35;1.80;;;;;;;3.35;62.59;97043.19;5069103;28;20032;-34
2023/03/04 11:08:01;;;;;;;4.20;1.60;;;;;;;3.31;62.64;97045.06;5070364;28;20068;-35
2023/03/04 11:10:29;;;;;;;3.05;1.55;;;;;;;3.24;62.74;97048.84;5048207;28;20084;-35
2023/03/04 11:13:07;;;;;;;2.80;1.40;;;;;;;3.23;62.71;97052.31;5068635;28;20054;-35
2023/03/04 11:15:56;;;;;;;2.75;1.80;;;;;;;3.21;62.60;97032.75;5063495;28;20322;-34
2023/03/04 11:18:37;;;;;;;3.33;1.67;;;;;;;3.09;62.92;97033.34;5068556;28;20075;-36
2023/03/04 11:21:02;;;;;;;1.80;1.45;;;;;;;3.03;62.79;97044.72;5063807;28;20041;-35
2023/03/04 11:23:41;;;;;;;2.45;1.42;;;;;;;2.92;63.04;97037.53;5066728;28;20123;-35
2023/03/04 11:26:14;;;;;;;2.13;1.55;;;;;;;2.69;63.38;96993.28;5066683;28;20058;-38
2023/03/04 11:29:04;;;;;;;3.40;1.70;;;;;;;2.93;63.23;97017.84;5068014;28;20032;-37
2023/03/04 11:31:38;;;;;;;6.32;2.17;;;;;;;2.89;63.52;97006.03;5080746;28;20059;-37
2023/03/04 11:34:22;;;;;;;4.22;2.15;;;;;;;2.95;63.93;97009.16;5068222;28;20048;-40
2023/03/04 11:36:56;;;;;;;4.38;2.13;;;;;;;3.01;63.83;97002.06;5068358;28;20511;-36
2023/03/04 11:40:03;;;;;;;3.30;1.95;;;;;;;2.98;64.34;97003.06;5067074;28;20033;-36
2023/03/04 11:42:42;;;;;;;4.22;2.38;;;;;;;2.82;65.35;97012.38;5066333;28;20139;-38